createdAt,value
2017-06-25T00:01:43.681Z,56.10
2017-06-25T00:04:25.105Z,56.07
2017-06-25T00:07:06.553Z,56.08
2017-06-25T00:09:48.048Z,56.08
2017-06-25T00:12:29.690Z,56.06
2017-06-25T00:15:11.214Z,56.05
2017-06-25T00:17:52.565Z,56.07
2017-06-25T00:20:33.993Z,56.03
2017-06-25T00:23:15.513Z,56.04
2017-06-25T00:25:57.262Z,56.03
2017-06-25T00:28:38.624Z,56.03
2017-06-25T00:31:20.141Z,56.03
2017-06-25T00:34:01.593Z,55.98
2017-06-25T00:36:43.150Z,56.00
2017-06-25T00:39:24.796Z,55.99
2017-06-25T00:42:06.200Z,55.99
2017-06-25T00:44:47.730Z,55.98
2017-06-25T00:47:29.173Z,55.97
2017-06-25T00:50:10.680Z,55.97
2017-06-25T00:52:59.091Z,55.97
2017-06-25T00:55:40.629Z,55.98
2017-06-25T00:58:21.942Z,55.97
2017-06-25T01:01:03.309Z,55.98
2017-06-25T01:03:44.764Z,55.97
2017-06-25T01:06:26.272Z,55.95
2017-06-25T01:09:07.709Z,55.94
2017-06-25T01:11:49.354Z,55.93
2017-06-25T01:14:30.913Z,55.91
2017-06-25T01:17:12.397Z,55.93
2017-06-25T01:19:53.972Z,55.93
2017-06-25T01:22:35.400Z,55.94
2017-06-25T01:25:16.857Z,55.94
2017-06-25T01:27:58.672Z,55.93
2017-06-25T01:30:40.139Z,55.93
2017-06-25T01:33:21.852Z,55.91
2017-06-25T01:36:03.321Z,55.93
2017-06-25T01:38:44.770Z,55.93
2017-06-25T01:41:26.344Z,55.93
2017-06-25T01:44:07.951Z,55.93
2017-06-25T01:46:49.388Z,55.91
2017-06-25T01:49:30.893Z,55.91
2017-06-25T01:52:12.328Z,55.89
2017-06-25T01:54:53.901Z,55.90
2017-06-25T01:57:35.411Z,55.92
2017-06-25T02:00:17.017Z,55.91
2017-06-25T02:02:58.589Z,55.92
2017-06-25T02:05:40.260Z,55.91
2017-06-25T02:08:21.618Z,55.93
2017-06-25T02:11:03.188Z,55.89
2017-06-25T02:13:44.515Z,55.92
2017-06-25T02:16:26.129Z,55.89
2017-06-25T02:19:07.489Z,55.89
2017-06-25T02:21:48.989Z,55.90
2017-06-25T02:24:30.456Z,55.88
2017-06-25T02:27:11.981Z,55.87
2017-06-25T02:29:53.321Z,55.90
2017-06-25T02:32:34.883Z,55.91
2017-06-25T02:35:16.253Z,55.92
2017-06-25T02:37:57.652Z,55.91
2017-06-25T02:40:39.150Z,55.87
2017-06-25T02:43:20.828Z,55.89
2017-06-25T02:46:02.398Z,55.89
2017-06-25T02:48:43.993Z,55.90
2017-06-25T02:51:25.525Z,55.92
2017-06-25T02:54:07.037Z,55.89
2017-06-25T02:56:48.677Z,55.91
2017-06-25T02:59:30.125Z,55.89
2017-06-25T03:02:11.576Z,55.89
2017-06-25T03:04:53.196Z,55.90
2017-06-25T03:07:34.713Z,55.88
2017-06-25T03:10:16.268Z,55.89
2017-06-25T03:12:57.877Z,55.88
2017-06-25T03:15:39.361Z,55.86
2017-06-25T03:18:20.884Z,55.87
2017-06-25T03:21:02.365Z,55.85
2017-06-25T03:23:43.873Z,55.87
2017-06-25T03:26:25.292Z,55.91
2017-06-25T03:29:06.875Z,55.89
2017-06-25T03:31:48.349Z,55.89
2017-06-25T03:34:29.785Z,55.89
2017-06-25T03:37:11.388Z,55.88
2017-06-25T03:39:53.000Z,55.83
2017-06-25T03:42:34.628Z,55.84
2017-06-25T03:45:16.087Z,55.86
2017-06-25T03:47:57.490Z,55.85
2017-06-25T03:50:38.980Z,55.87
2017-06-25T04:03:11.037Z,56.46
2017-06-25T04:05:52.593Z,56.54
2017-06-25T04:08:34.092Z,56.50
2017-06-25T04:11:15.548Z,56.36
2017-06-25T04:13:57.007Z,56.31
2017-06-25T04:16:38.349Z,56.22
2017-06-25T04:19:19.957Z,56.18
2017-06-25T04:22:01.461Z,56.14
2017-06-25T04:24:42.936Z,56.06
2017-06-25T04:27:24.482Z,56.06
2017-06-25T04:30:06.052Z,56.04
2017-06-25T04:32:47.345Z,56.03
2017-06-25T04:35:28.693Z,55.99
2017-06-25T04:38:10.225Z,56.00
2017-06-25T04:40:51.960Z,55.97
2017-06-25T04:43:33.580Z,55.92
2017-06-25T04:46:15.407Z,55.91
2017-06-25T04:48:56.931Z,55.91
2017-06-25T04:51:38.272Z,55.89
2017-06-25T04:54:19.675Z,55.89
2017-06-25T04:57:01.226Z,55.84
2017-06-25T04:59:42.788Z,55.83
2017-06-25T05:02:24.145Z,55.83
2017-06-25T05:05:05.616Z,55.83
2017-06-25T05:07:47.217Z,55.81
2017-06-25T05:10:28.714Z,55.81
2017-06-25T05:13:10.176Z,55.80
2017-06-25T05:15:51.664Z,55.83
2017-06-25T05:18:33.033Z,55.84
2017-06-25T05:21:14.921Z,55.89
2017-06-25T05:23:56.068Z,55.96
2017-06-25T05:26:37.364Z,55.96
2017-06-25T05:29:18.908Z,55.97
2017-06-25T05:32:00.407Z,55.97
2017-06-25T05:34:41.783Z,55.99
2017-06-25T05:37:23.149Z,55.96
2017-06-25T05:40:04.679Z,55.95
2017-06-25T05:42:46.228Z,55.95
2017-06-25T05:45:28.010Z,55.93
2017-06-25T05:48:09.322Z,55.92
2017-06-25T05:50:50.815Z,55.92
2017-06-25T05:53:32.652Z,55.93
2017-06-25T05:56:13.768Z,55.92
2017-06-25T05:58:55.163Z,55.89
2017-06-25T06:01:36.900Z,55.92
2017-06-25T06:04:18.185Z,55.93
2017-06-25T06:06:59.665Z,55.95
2017-06-25T06:09:41.129Z,55.92
2017-06-25T06:12:22.753Z,55.92
2017-06-25T06:15:04.250Z,55.89
2017-06-25T06:17:45.725Z,55.85
2017-06-25T06:30:17.608Z,56.32
2017-06-25T06:32:59.213Z,56.44
2017-06-25T06:35:40.689Z,56.40
2017-06-25T06:38:22.185Z,56.32
2017-06-25T06:41:03.844Z,56.25
2017-06-25T06:43:45.284Z,56.13
2017-06-25T06:46:26.664Z,56.07
2017-06-25T06:49:08.205Z,56.02
2017-06-25T06:51:49.689Z,55.96
2017-06-25T06:54:31.189Z,55.96
2017-06-25T06:57:12.678Z,55.88
2017-06-25T06:59:54.263Z,55.87
2017-06-25T07:02:35.978Z,55.85
2017-06-25T07:05:17.520Z,55.87
2017-06-25T07:07:59.053Z,56.32
2017-06-25T07:10:40.664Z,56.64
2017-06-25T07:13:22.061Z,56.75
2017-06-25T07:16:03.696Z,56.91
2017-06-25T07:18:45.284Z,57.07
2017-06-25T07:21:26.729Z,57.16
2017-06-25T07:24:08.300Z,57.02
2017-06-25T07:26:49.631Z,56.99
2017-06-25T07:29:31.209Z,57.13
2017-06-25T07:32:12.715Z,57.04
2017-06-25T07:34:54.112Z,57.04
2017-06-25T07:37:35.467Z,56.82
2017-06-25T07:40:16.951Z,56.67
2017-06-25T07:42:58.281Z,56.66
2017-06-25T07:45:39.824Z,56.46
2017-06-25T07:48:21.346Z,56.39
2017-06-25T07:51:02.739Z,56.40
2017-06-25T07:53:44.338Z,56.74
2017-06-25T07:56:25.679Z,56.92
2017-06-25T07:59:07.229Z,56.60
2017-06-25T08:01:48.678Z,56.23
2017-06-25T08:04:30.204Z,56.16
2017-06-25T08:07:11.563Z,56.02
2017-06-25T08:09:53.009Z,55.97
2017-06-25T08:12:34.555Z,55.90
2017-06-25T08:15:15.945Z,55.82
2017-06-25T08:17:57.478Z,55.83
2017-06-25T08:20:38.929Z,55.77
2017-06-25T08:23:20.453Z,55.98
2017-06-25T08:26:01.649Z,55.75
2017-06-25T08:28:43.430Z,55.48
2017-06-25T08:31:25.149Z,55.58
2017-06-25T08:34:06.490Z,55.34
2017-06-25T08:36:48.067Z,55.52
2017-06-25T08:39:29.527Z,55.26
2017-06-25T08:42:10.929Z,55.09
2017-06-25T08:44:52.416Z,54.93
2017-06-25T08:47:34.552Z,54.75
2017-06-25T08:50:16.548Z,54.43
2017-06-25T08:52:58.322Z,54.22
2017-06-25T08:55:39.649Z,54.12
2017-06-25T08:58:20.992Z,53.93
2017-06-25T09:01:02.588Z,53.95
2017-06-25T09:03:44.217Z,53.89
2017-06-25T09:06:25.553Z,53.73
2017-06-25T09:09:06.910Z,54.34
2017-06-25T09:11:48.597Z,53.89
2017-06-25T09:14:30.002Z,53.52
2017-06-25T09:17:11.748Z,53.48
2017-06-25T09:19:53.054Z,53.99
2017-06-25T09:22:34.449Z,53.38
2017-06-25T09:25:15.837Z,52.83
2017-06-25T09:27:57.351Z,53.25
2017-06-25T09:30:38.901Z,53.32
2017-06-25T09:33:20.514Z,53.62
2017-06-25T09:36:01.789Z,53.33
2017-06-25T09:38:43.194Z,53.30
2017-06-25T09:41:24.801Z,53.10
2017-06-25T09:44:06.226Z,53.07
2017-06-25T09:46:47.485Z,52.89
2017-06-25T09:49:29.010Z,52.13
2017-06-25T09:52:10.630Z,52.61
2017-06-25T09:54:52.024Z,52.94
2017-06-25T09:57:33.433Z,53.12
2017-06-25T10:00:14.912Z,52.97
2017-06-25T10:02:56.458Z,53.21
2017-06-25T10:05:38.088Z,53.18
2017-06-25T10:08:19.578Z,53.03
2017-06-25T10:11:01.198Z,53.62
2017-06-25T10:13:42.481Z,53.96
2017-06-25T10:16:23.953Z,53.83
2017-06-25T10:19:05.408Z,54.21
2017-06-25T10:21:46.873Z,54.57
2017-06-25T10:24:28.259Z,54.58
2017-06-25T10:27:09.758Z,54.84
2017-06-25T10:29:51.211Z,54.93
2017-06-25T10:32:32.663Z,54.65
2017-06-25T10:35:14.100Z,55.04
2017-06-25T10:37:55.789Z,54.94
2017-06-25T10:40:37.261Z,54.51
2017-06-25T10:43:18.821Z,54.75
2017-06-25T10:46:00.173Z,54.63
2017-06-25T10:48:41.746Z,54.85
2017-06-25T10:51:23.102Z,54.89
2017-06-25T10:54:04.588Z,54.67
2017-06-25T10:56:45.905Z,54.63
2017-06-25T10:59:27.239Z,54.45
2017-06-25T11:02:08.773Z,54.58
2017-06-25T11:04:50.168Z,54.17
2017-06-25T11:07:31.547Z,53.83
2017-06-25T11:10:13.050Z,54.05
2017-06-25T11:12:54.489Z,53.64
2017-06-25T11:15:35.804Z,53.84
2017-06-25T11:18:17.175Z,53.67
2017-06-25T11:20:58.695Z,53.50
2017-06-25T11:23:40.180Z,53.29
2017-06-25T11:26:21.552Z,53.37
2017-06-25T11:29:02.990Z,53.12
2017-06-25T11:31:44.699Z,52.91
2017-06-25T11:34:26.184Z,52.75
2017-06-25T11:37:07.590Z,52.59
2017-06-25T11:39:48.970Z,52.96
2017-06-25T11:42:30.729Z,52.78
2017-06-25T11:45:12.029Z,52.71
2017-06-25T11:47:53.438Z,52.68
2017-06-25T11:50:34.938Z,52.62
2017-06-25T11:53:16.296Z,52.67
2017-06-25T11:55:57.798Z,52.75
2017-06-25T11:58:39.297Z,52.70
2017-06-25T12:01:20.749Z,52.89
2017-06-25T12:04:02.281Z,52.92
2017-06-25T12:06:43.675Z,52.84
2017-06-25T12:09:25.152Z,52.60
2017-06-25T12:12:06.565Z,52.50
2017-06-25T12:14:48.057Z,52.66
2017-06-25T12:17:29.380Z,52.73
2017-06-25T12:20:11.009Z,52.74
2017-06-25T12:22:52.457Z,52.83
2017-06-25T12:25:33.910Z,52.73
2017-06-25T12:28:15.456Z,52.82
2017-06-25T12:30:56.933Z,52.80
2017-06-25T12:33:38.363Z,53.04
2017-06-25T12:36:19.976Z,53.00
2017-06-25T12:39:01.511Z,52.77
2017-06-25T12:41:43.282Z,52.19
2017-06-25T12:44:24.926Z,51.78
2017-06-25T12:47:06.206Z,51.76
2017-06-25T12:49:47.657Z,51.89
2017-06-25T12:52:29.009Z,51.72
2017-06-25T12:55:10.289Z,51.94
2017-06-25T12:57:51.935Z,51.61
2017-06-25T13:00:33.413Z,52.11
2017-06-25T13:03:14.770Z,52.09
2017-06-25T13:05:56.102Z,51.97
2017-06-25T13:08:37.643Z,51.97
2017-06-25T13:11:19.091Z,51.87
2017-06-25T13:14:00.717Z,51.88
2017-06-25T13:16:42.302Z,52.04
2017-06-25T13:19:23.991Z,51.96
2017-06-25T13:22:05.682Z,52.05
2017-06-25T13:24:47.236Z,52.34
2017-06-25T13:27:28.585Z,52.14
2017-06-25T13:30:10.074Z,52.31
2017-06-25T13:32:51.573Z,52.40
2017-06-25T13:35:33.061Z,52.80
2017-06-25T13:38:14.534Z,52.55
2017-06-25T13:40:55.944Z,52.68
2017-06-25T13:43:37.430Z,53.07
2017-06-25T13:46:18.960Z,52.79
2017-06-25T13:49:00.462Z,52.54
2017-06-25T13:51:41.764Z,52.45
2017-06-25T13:54:23.068Z,52.78
2017-06-25T13:57:04.644Z,52.94
2017-06-25T13:59:46.010Z,52.79
2017-06-25T14:02:27.453Z,52.56
2017-06-25T14:05:08.910Z,52.68
2017-06-25T14:07:50.539Z,52.72
2017-06-25T14:10:32.037Z,53.11
2017-06-25T14:13:13.494Z,53.21
2017-06-25T14:15:55.084Z,53.40
2017-06-25T14:18:36.395Z,53.56
2017-06-25T14:21:17.838Z,53.39
2017-06-25T14:23:59.516Z,53.50
2017-06-25T14:26:41.086Z,53.37
2017-06-25T14:29:22.666Z,53.46
2017-06-25T14:32:04.125Z,53.45
2017-06-25T14:34:45.497Z,53.08
2017-06-25T14:37:26.881Z,53.49
2017-06-25T14:40:08.248Z,53.57
2017-06-25T14:42:49.872Z,53.69
2017-06-25T14:45:31.348Z,53.72
2017-06-25T14:48:12.689Z,53.93
2017-06-25T14:50:54.241Z,53.77
2017-06-25T14:53:35.570Z,54.16
2017-06-25T14:56:17.205Z,54.21
2017-06-25T14:58:58.653Z,54.08
2017-06-25T15:01:40.341Z,54.21
2017-06-25T15:04:21.933Z,54.41
2017-06-25T15:07:03.585Z,54.30
2017-06-25T15:09:45.032Z,54.38
2017-06-25T15:12:26.413Z,54.32
2017-06-25T15:15:07.857Z,54.39
2017-06-25T15:17:49.594Z,54.14
2017-06-25T15:20:31.145Z,54.02
2017-06-25T15:23:12.481Z,54.03
2017-06-25T15:25:53.869Z,54.02
2017-06-25T15:28:35.266Z,53.88
2017-06-25T15:31:16.704Z,53.92
2017-06-25T15:33:58.233Z,53.73
2017-06-25T15:36:39.677Z,53.75
2017-06-25T15:39:21.195Z,53.76
2017-06-25T15:42:02.525Z,53.87
2017-06-25T15:44:44.163Z,53.87
2017-06-25T15:47:25.757Z,54.00
2017-06-25T15:50:06.874Z,53.72
2017-06-25T15:52:48.281Z,53.83
2017-06-25T15:55:29.799Z,53.85
2017-06-25T15:58:11.410Z,53.56
2017-06-25T16:00:52.878Z,53.48
2017-06-25T16:03:34.534Z,53.46
2017-06-25T16:06:15.939Z,53.45
2017-06-25T16:08:57.411Z,53.49
2017-06-25T16:11:38.866Z,53.79
2017-06-25T16:14:20.258Z,53.88
2017-06-25T16:17:01.909Z,54.06
2017-06-25T16:19:43.373Z,54.04
2017-06-25T16:22:24.529Z,53.98
2017-06-25T16:25:06.111Z,53.91
2017-06-25T16:27:47.616Z,53.77
2017-06-25T16:30:28.990Z,53.52
2017-06-25T16:33:10.354Z,53.49
2017-06-25T16:35:51.885Z,53.39
2017-06-25T16:38:33.499Z,53.26
2017-06-25T16:41:15.029Z,53.25
2017-06-25T16:43:56.609Z,53.35
2017-06-25T16:46:38.270Z,53.35
2017-06-25T16:49:19.905Z,53.21
2017-06-25T16:52:01.361Z,53.17
2017-06-25T16:54:43.009Z,52.95
2017-06-25T16:57:24.540Z,52.96
2017-06-25T17:00:06.248Z,52.93
2017-06-25T17:02:47.731Z,52.82
2017-06-25T17:05:29.256Z,52.68
2017-06-25T17:08:10.592Z,52.35
2017-06-25T17:10:52.060Z,52.04
2017-06-25T17:13:33.404Z,51.86
2017-06-25T17:16:15.040Z,52.08
2017-06-25T17:18:56.490Z,52.11
2017-06-25T17:21:37.569Z,52.03
2017-06-25T17:24:19.271Z,51.84
2017-06-25T17:27:00.741Z,51.68
2017-06-25T17:29:42.325Z,51.60
2017-06-25T17:32:23.943Z,51.23
2017-06-25T17:35:05.491Z,51.27
2017-06-25T17:37:47.305Z,51.30
2017-06-25T17:40:28.646Z,51.35
2017-06-25T17:43:10.074Z,51.48
2017-06-25T17:45:51.369Z,51.27
2017-06-25T17:48:32.721Z,51.28
2017-06-25T17:51:14.172Z,51.39
2017-06-25T17:53:55.633Z,51.41
2017-06-25T17:56:38.082Z,51.44
2017-06-25T17:59:19.565Z,51.48
2017-06-25T18:02:01.031Z,51.59
2017-06-25T18:04:42.754Z,51.57
2017-06-25T18:07:24.033Z,51.91
2017-06-25T18:10:05.326Z,52.03
2017-06-25T18:12:46.705Z,52.06
2017-06-25T18:15:28.070Z,52.09
2017-06-25T18:18:09.628Z,51.92
2017-06-25T18:20:50.756Z,52.09
2017-06-25T18:23:32.214Z,52.33
2017-06-25T18:26:13.744Z,52.39
2017-06-25T18:28:55.458Z,52.62
2017-06-25T18:31:36.708Z,52.44
2017-06-25T18:34:18.158Z,52.40
2017-06-25T18:36:59.687Z,52.27
2017-06-25T18:39:41.239Z,52.22
2017-06-25T18:42:22.750Z,51.95
2017-06-25T18:45:04.182Z,51.58
2017-06-25T18:47:45.757Z,51.71
2017-06-25T18:50:27.348Z,51.69
2017-06-25T18:53:08.772Z,51.64
2017-06-25T18:55:50.328Z,51.56
2017-06-25T19:16:38.463Z,52.29
2017-06-25T19:19:20.185Z,52.38
2017-06-25T19:22:01.466Z,52.31
2017-06-25T19:24:43.235Z,52.35
2017-06-25T19:27:24.757Z,52.35
2017-06-25T19:37:21.412Z,52.64
2017-06-25T19:40:03.230Z,52.55
2017-06-25T19:42:44.746Z,52.52
2017-06-25T19:52:57.878Z,53.16
2017-06-25T19:55:39.377Z,53.23
2017-06-25T20:12:49.735Z,53.64
2017-06-25T20:33:37.187Z,53.61
2017-06-25T20:36:18.892Z,53.73
2017-06-25T20:39:00.222Z,53.78
2017-06-25T20:41:41.445Z,53.74
2017-06-25T20:55:14.877Z,53.79
2017-06-25T20:57:56.079Z,53.86
2017-06-25T21:11:51.040Z,53.76
2017-06-25T21:32:38.641Z,53.76
2017-06-25T21:35:19.974Z,53.86
2017-06-25T21:38:01.161Z,53.77
2017-06-25T21:40:42.832Z,53.28
2017-06-25T21:43:24.425Z,53.38
2017-06-25T21:53:20.572Z,53.57
2017-06-25T21:56:01.929Z,53.59
2017-06-25T21:58:43.435Z,53.67
2017-06-25T22:12:24.920Z,54.11
2017-06-25T22:33:12.597Z,53.85
2017-06-25T22:35:53.995Z,53.87
2017-06-25T22:38:35.404Z,53.84
2017-06-25T22:41:17.049Z,53.79
2017-06-25T22:54:50.128Z,53.81
2017-06-25T22:57:31.598Z,53.86
2017-06-25T23:11:22.037Z,53.84
2017-06-25T23:32:10.280Z,53.92
2017-06-25T23:34:51.769Z,53.93
2017-06-25T23:37:33.430Z,53.92
2017-06-25T23:40:14.857Z,53.90
2017-06-25T23:42:56.892Z,53.89
2017-06-25T23:52:53.927Z,53.98
2017-06-25T23:55:35.400Z,54.06
2017-06-25T23:58:17.007Z,54.09
